sensor_id;sensor_type;location;lat;lon;timestamp;pressure;altitude;pressure_sealevel;temperature;humidity
77240;BME280;66258;53.170;-2.240;2023-03-14T00:01:20;97561.38;;;13.44;nan
77240;BME280;66258;53.170;-2.240;2023-03-14T00:03:47;97559.91;;;13.58;nan
77240;BME280;66258;53.170;-2.240;2023-03-14T00:06:16;97560.56;;;13.65;nan
77240;BME280;66258;53.170;-2.240;2023-03-14T00:08:44;97563.09;;;13.50;nan
77240;BME280;66258;53.170;-2.240;2023-03-14T00:11:13;97570.97;;;13.30;nan
77240;BME280;66258;53.170;-2.240;2023-03-14T00:13:41;97574.34;;;13.59;nan
77240;BME280;66258;53.170;-2.240;2023-03-14T00:16:11;97584.44;;;13.63;nan
77240;BME280;66258;53.170;-2.240;2023-03-14T00:18:40;97573.66;;;13.68;nan
77240;BME280;66258;53.170;-2.240;2023-03-14T00:21:09;97576.66;;;12.78;nan
77240;BME280;66258;53.170;-2.240;2023-03-14T00:23:41;97591.03;;;13.12;nan
77240;BME280;66258;53.170;-2.240;2023-03-14T00:26:10;97593.16;;;13.44;nan
77240;BME280;66258;53.170;-2.240;2023-03-14T00:28:38;97600.00;;;12.96;nan
77240;BME280;66258;53.170;-2.240;2023-03-14T00:31:08;97619.41;;;13.76;nan
77240;BME280;66258;53.170;-2.240;2023-03-14T00:33:38;97619.41;;;13.76;nan
77240;BME280;66258;53.170;-2.240;2023-03-14T00:36:08;97628.78;;;13.86;nan
77240;BME280;66258;53.170;-2.240;2023-03-14T00:38:37;97631.66;;;13.57;nan
77240;BME280;66258;53.170;-2.240;2023-03-14T00:41:06;97641.25;;;13.82;nan
77240;BME280;66258;53.170;-2.240;2023-03-14T00:43:34;97647.41;;;13.77;nan
77240;BME280;66258;53.170;-2.240;2023-03-14T00:46:02;97642.78;;;12.72;nan
77240;BME280;66258;53.170;-2.240;2023-03-14T00:48:30;97650.72;;;13.24;nan
77240;BME280;66258;53.170;-2.240;2023-03-14T00:51:01;97662.28;;;13.69;nan
77240;BME280;66258;53.170;-2.240;2023-03-14T00:53:28;97673.09;;;13.64;nan
77240;BME280;66258;53.170;-2.240;2023-03-14T00:55:56;97676.47;;;13.71;nan
77240;BME280;66258;53.170;-2.240;2023-03-14T00:58:23;97682.84;;;13.44;nan
77240;BME280;66258;53.170;-2.240;2023-03-14T01:00:51;97675.91;;;13.19;nan
77240;BME280;66258;53.170;-2.240;2023-03-14T01:03:18;97685.88;;;13.30;nan
77240;BME280;66258;53.170;-2.240;2023-03-14T01:05:46;97686.16;;;12.55;nan
77240;BME280;66258;53.170;-2.240;2023-03-14T01:08:16;97698.38;;;12.69;nan
77240;BME280;66258;53.170;-2.240;2023-03-14T01:10:43;97718.50;;;12.57;nan
77240;BME280;66258;53.170;-2.240;2023-03-14T01:13:11;97713.78;;;12.52;nan
77240;BME280;66258;53.170;-2.240;2023-03-14T01:15:38;97717.38;;;12.41;nan
77240;BME280;66258;53.170;-2.240;2023-03-14T01:18:06;97735.19;;;12.94;nan
77240;BME280;66258;53.170;-2.240;2023-03-14T01:20:33;97739.91;;;12.98;nan
77240;BME280;66258;53.170;-2.240;2023-03-14T01:23:01;97741.53;;;12.99;nan
77240;BME280;66258;53.170;-2.240;2023-03-14T01:25:33;97746.00;;;13.05;nan
77240;BME280;66258;53.170;-2.240;2023-03-14T01:28:01;97750.63;;;13.05;nan
77240;BME280;66258;53.170;-2.240;2023-03-14T01:30:28;97751.44;;;13.05;nan
77240;BME280;66258;53.170;-2.240;2023-03-14T01:32:56;97762.84;;;13.19;nan
77240;BME280;66258;53.170;-2.240;2023-03-14T01:35:23;97756.47;;;13.14;nan
77240;BME280;66258;53.170;-2.240;2023-03-14T01:37:50;97776.84;;;12.99;nan
77240;BME280;66258;53.170;-2.240;2023-03-14T01:40:17;97774.13;;;12.99;nan
77240;BME280;66258;53.170;-2.240;2023-03-14T01:42:54;97795.16;;;12.92;nan
77240;BME280;66258;53.170;-2.240;2023-03-14T01:48:43;97808.03;;;12.97;nan
77240;BME280;66258;53.170;-2.240;2023-03-14T01:51:17;97819.66;;;12.81;nan
77240;BME280;66258;53.170;-2.240;2023-03-14T01:53:46;97825.69;;;12.71;nan
77240;BME280;66258;53.170;-2.240;2023-03-14T01:56:17;97824.78;;;12.65;nan
77240;BME280;66258;53.170;-2.240;2023-03-14T01:58:49;97833.53;;;12.67;nan
77240;BME280;66258;53.170;-2.240;2023-03-14T02:01:21;97842.34;;;12.74;nan
77240;BME280;66258;53.170;-2.240;2023-03-14T02:03:54;97849.81;;;12.56;nan
77240;BME280;66258;53.170;-2.240;2023-03-14T02:06:24;97858.91;;;12.61;nan
77240;BME280;66258;53.170;-2.240;2023-03-14T02:08:54;97858.78;;;12.56;nan
77240;BME280;66258;53.170;-2.240;2023-03-14T02:11:26;97864.72;;;12.42;nan
77240;BME280;66258;53.170;-2.240;2023-03-14T02:13:59;97869.16;;;12.48;nan
77240;BME280;66258;53.170;-2.240;2023-03-14T02:16:27;97876.94;;;12.56;nan
77240;BME280;66258;53.170;-2.240;2023-03-14T02:18:54;97882.50;;;12.49;nan
77240;BME280;66258;53.170;-2.240;2023-03-14T02:21:27;97883.81;;;12.47;nan
77240;BME280;66258;53.170;-2.240;2023-03-14T02:24:04;97897.63;;;12.45;nan
77240;BME280;66258;53.170;-2.240;2023-03-14T02:26:38;97903.72;;;12.52;nan
77240;BME280;66258;53.170;-2.240;2023-03-14T02:29:07;97920.09;;;12.69;nan
77240;BME280;66258;53.170;-2.240;2023-03-14T02:31:35;97921.06;;;12.74;nan
77240;BME280;66258;53.170;-2.240;2023-03-14T02:34:13;97943.72;;;12.80;nan
77240;BME280;66258;53.170;-2.240;2023-03-14T02:36:40;97948.19;;;12.74;nan
77240;BME280;66258;53.170;-2.240;2023-03-14T02:39:14;97954.00;;;12.66;nan
77240;BME280;66258;53.170;-2.240;2023-03-14T02:41:43;97972.28;;;12.71;nan
77240;BME280;66258;53.170;-2.240;2023-03-14T02:44:12;97981.28;;;11.95;nan
77240;BME280;66258;53.170;-2.240;2023-03-14T02:46:40;97984.69;;;12.44;nan
77240;BME280;66258;53.170;-2.240;2023-03-14T02:49:12;97995.13;;;12.28;nan
77240;BME280;66258;53.170;-2.240;2023-03-14T02:51:41;98001.88;;;12.37;nan
77240;BME280;66258;53.170;-2.240;2023-03-14T02:54:10;98012.50;;;12.39;nan
77240;BME280;66258;53.170;-2.240;2023-03-14T02:56:39;98021.06;;;12.13;nan
77240;BME280;66258;53.170;-2.240;2023-03-14T02:59:07;98028.81;;;12.09;nan
77240;BME280;66258;53.170;-2.240;2023-03-14T03:01:38;98033.25;;;11.92;nan
77240;BME280;66258;53.170;-2.240;2023-03-14T03:04:06;98032.66;;;11.42;nan
77240;BME280;66258;53.170;-2.240;2023-03-14T03:06:33;98047.59;;;11.44;nan
77240;BME280;66258;53.170;-2.240;2023-03-14T03:09:02;98057.28;;;11.70;nan
77240;BME280;66258;53.170;-2.240;2023-03-14T03:11:30;98062.50;;;11.35;nan
77240;BME280;66258;53.170;-2.240;2023-03-14T03:13:57;98076.06;;;11.35;nan
77240;BME280;66258;53.170;-2.240;2023-03-14T03:16:25;98090.81;;;11.39;nan
77240;BME280;66258;53.170;-2.240;2023-03-14T03:18:53;98097.41;;;11.25;nan
77240;BME280;66258;53.170;-2.240;2023-03-14T03:21:21;98103.97;;;11.17;nan
77240;BME280;66258;53.170;-2.240;2023-03-14T03:23:50;98113.94;;;10.74;nan
77240;BME280;66258;53.170;-2.240;2023-03-14T03:26:17;98115.53;;;10.56;nan
77240;BME280;66258;53.170;-2.240;2023-03-14T03:28:44;98125.03;;;10.65;nan
77240;BME280;66258;53.170;-2.240;2023-03-14T03:31:12;98134.09;;;10.78;nan
77240;BME280;66258;53.170;-2.240;2023-03-14T03:33:40;98142.44;;;10.76;nan
77240;BME280;66258;53.170;-2.240;2023-03-14T03:36:09;98138.25;;;10.80;nan
77240;BME280;66258;53.170;-2.240;2023-03-14T03:38:37;98155.75;;;11.02;nan
77240;BME280;66258;53.170;-2.240;2023-03-14T03:41:06;98162.59;;;11.05;nan
77240;BME280;66258;53.170;-2.240;2023-03-14T03:43:33;98170.09;;;11.28;nan
77240;BME280;66258;53.170;-2.240;2023-03-14T03:46:03;98180.03;;;11.34;nan
77240;BME280;66258;53.170;-2.240;2023-03-14T03:48:30;98184.50;;;11.47;nan
77240;BME280;66258;53.170;-2.240;2023-03-14T03:50:58;98200.88;;;11.33;nan
77240;BME280;66258;53.170;-2.240;2023-03-14T03:53:27;98202.19;;;11.24;nan
77240;BME280;66258;53.170;-2.240;2023-03-14T03:56:00;98208.28;;;10.95;nan
77240;BME280;66258;53.170;-2.240;2023-03-14T03:58:27;98209.56;;;10.61;nan
77240;BME280;66258;53.170;-2.240;2023-03-14T04:00:54;98218.94;;;10.20;nan
77240;BME280;66258;53.170;-2.240;2023-03-14T04:03:22;98229.09;;;10.31;nan
77240;BME280;66258;53.170;-2.240;2023-03-14T04:05:58;98232.19;;;10.35;nan
77240;BME280;66258;53.170;-2.240;2023-03-14T04:08:32;98239.72;;;10.26;nan
77240;BME280;66258;53.170;-2.240;2023-03-14T04:11:01;98251.91;;;10.42;nan
77240;BME280;66258;53.170;-2.240;2023-03-14T04:13:29;98255.41;;;10.49;nan
77240;BME280;66258;53.170;-2.240;2023-03-14T04:15:57;98259.88;;;10.30;nan
77240;BME280;66258;53.170;-2.240;2023-03-14T04:18:24;98261.94;;;10.35;nan
77240;BME280;66258;53.170;-2.240;2023-03-14T04:20:54;98271.88;;;10.48;nan
77240;BME280;66258;53.170;-2.240;2023-03-14T04:23:23;98288.78;;;10.37;nan
77240;BME280;66258;53.170;-2.240;2023-03-14T04:25:53;98300.44;;;10.37;nan
77240;BME280;66258;53.170;-2.240;2023-03-14T04:28:21;98304.94;;;10.50;nan
77240;BME280;66258;53.170;-2.240;2023-03-14T04:30:49;98314.91;;;10.56;nan
77240;BME280;66258;53.170;-2.240;2023-03-14T04:33:16;98318.16;;;10.71;nan
77240;BME280;66258;53.170;-2.240;2023-03-14T04:35:47;98333.34;;;10.79;nan
77240;BME280;66258;53.170;-2.240;2023-03-14T04:38:16;98334.13;;;10.86;nan
77240;BME280;66258;53.170;-2.240;2023-03-14T04:40:44;98347.53;;;11.06;nan
77240;BME280;66258;53.170;-2.240;2023-03-14T04:43:14;98355.09;;;10.97;nan
77240;BME280;66258;53.170;-2.240;2023-03-14T04:45:42;98361.91;;;10.61;nan
77240;BME280;66258;53.170;-2.240;2023-03-14T04:48:09;98369.63;;;11.02;nan
77240;BME280;66258;53.170;-2.240;2023-03-14T04:50:37;98374.16;;;11.15;nan
77240;BME280;66258;53.170;-2.240;2023-03-14T04:53:04;98387.63;;;10.84;nan
77240;BME280;66258;53.170;-2.240;2023-03-14T04:55:34;98400.03;;;10.47;nan
77240;BME280;66258;53.170;-2.240;2023-03-14T04:58:02;98412.47;;;10.61;nan
77240;BME280;66258;53.170;-2.240;2023-03-14T05:00:32;98419.13;;;10.65;nan
77240;BME280;66258;53.170;-2.240;2023-03-14T05:03:00;98426.41;;;10.71;nan
77240;BME280;66258;53.170;-2.240;2023-03-14T05:05:29;98442.72;;;10.45;nan
77240;BME280;66258;53.170;-2.240;2023-03-14T05:07:56;98445.56;;;10.63;nan
77240;BME280;66258;53.170;-2.240;2023-03-14T05:10:24;98451.44;;;10.47;nan
77240;BME280;66258;53.170;-2.240;2023-03-14T05:12:51;98458.88;;;10.71;nan
77240;BME280;66258;53.170;-2.240;2023-03-14T05:15:18;98466.13;;;10.90;nan
77240;BME280;66258;53.170;-2.240;2023-03-14T05:17:48;98478.25;;;10.75;nan
77240;BME280;66258;53.170;-2.240;2023-03-14T05:20:15;98473.50;;;10.57;nan
77240;BME280;66258;53.170;-2.240;2023-03-14T05:22:42;98485.94;;;10.78;nan
77240;BME280;66258;53.170;-2.240;2023-03-14T05:25:10;98481.38;;;10.72;nan
77240;BME280;66258;53.170;-2.240;2023-03-14T05:27:38;98493.50;;;10.36;nan
77240;BME280;66258;53.170;-2.240;2023-03-14T05:30:09;98498.47;;;10.46;nan
77240;BME280;66258;53.170;-2.240;2023-03-14T05:32:39;98506.63;;;10.32;nan
77240;BME280;66258;53.170;-2.240;2023-03-14T05:35:09;98514.28;;;10.49;nan
77240;BME280;66258;53.170;-2.240;2023-03-14T05:37:36;98523.25;;;10.29;nan
77240;BME280;66258;53.170;-2.240;2023-03-14T05:40:05;98531.16;;;10.38;nan
77240;BME280;66258;53.170;-2.240;2023-03-14T05:42:33;98529.47;;;10.43;nan
77240;BME280;66258;53.170;-2.240;2023-03-14T05:45:00;98539.28;;;10.57;nan
77240;BME280;66258;53.170;-2.240;2023-03-14T05:47:27;98543.44;;;10.53;nan
77240;BME280;66258;53.170;-2.240;2023-03-14T05:49:56;98552.56;;;10.72;nan
77240;BME280;66258;53.170;-2.240;2023-03-14T05:52:25;98561.94;;;10.76;nan
77240;BME280;66258;53.170;-2.240;2023-03-14T05:54:53;98574.81;;;10.87;nan
77240;BME280;66258;53.170;-2.240;2023-03-14T05:57:20;98575.03;;;10.86;nan
77240;BME280;66258;53.170;-2.240;2023-03-14T05:59:47;98575.88;;;10.86;nan
77240;BME280;66258;53.170;-2.240;2023-03-14T06:02:15;98585.44;;;10.95;nan
77240;BME280;66258;53.170;-2.240;2023-03-14T06:04:43;98590.00;;;11.01;nan
77240;BME280;66258;53.170;-2.240;2023-03-14T06:07:10;98599.16;;;11.07;nan
77240;BME280;66258;53.170;-2.240;2023-03-14T06:09:39;98605.19;;;11.09;nan
77240;BME280;66258;53.170;-2.240;2023-03-14T06:12:07;98612.47;;;11.15;nan
77240;BME280;66258;53.170;-2.240;2023-03-14T06:14:34;98617.28;;;11.07;nan
77240;BME280;66258;53.170;-2.240;2023-03-14T06:17:02;98627.91;;;11.21;nan
77240;BME280;66258;53.170;-2.240;2023-03-14T06:19:29;98649.78;;;11.07;nan
77240;BME280;66258;53.170;-2.240;2023-03-14T06:21:58;98672.50;;;10.92;nan
77240;BME280;66258;53.170;-2.240;2023-03-14T06:24:26;98684.34;;;10.85;nan
77240;BME280;66258;53.170;-2.240;2023-03-14T06:26:57;98700.41;;;10.80;nan
77240;BME280;66258;53.170;-2.240;2023-03-14T06:29:25;98697.25;;;10.83;nan
77240;BME280;66258;53.170;-2.240;2023-03-14T06:31:52;98712.66;;;10.82;nan
77240;BME280;66258;53.170;-2.240;2023-03-14T06:34:20;98717.47;;;10.80;nan
77240;BME280;66258;53.170;-2.240;2023-03-14T06:36:49;98724.09;;;10.64;nan
77240;BME280;66258;53.170;-2.240;2023-03-14T06:39:18;98727.41;;;10.60;nan
77240;BME280;66258;53.170;-2.240;2023-03-14T06:41:45;98745.75;;;10.58;nan
77240;BME280;66258;53.170;-2.240;2023-03-14T06:44:15;98752.19;;;10.57;nan
77240;BME280;66258;53.170;-2.240;2023-03-14T06:46:43;98751.16;;;10.64;nan
77240;BME280;66258;53.170;-2.240;2023-03-14T06:49:12;98762.81;;;10.65;nan
77240;BME280;66258;53.170;-2.240;2023-03-14T06:51:38;98769.47;;;10.62;nan
77240;BME280;66258;53.170;-2.240;2023-03-14T06:54:06;98773.63;;;10.52;nan
77240;BME280;66258;53.170;-2.240;2023-03-14T06:56:35;98777.59;;;10.56;nan
77240;BME280;66258;53.170;-2.240;2023-03-14T06:59:04;98785.28;;;10.52;nan
77240;BME280;66258;53.170;-2.240;2023-03-14T07:01:34;98790.72;;;10.65;nan
77240;BME280;66258;53.170;-2.240;2023-03-14T07:04:01;98805.31;;;10.71;nan
77240;BME280;66258;53.170;-2.240;2023-03-14T07:06:28;98805.13;;;10.79;nan
77240;BME280;66258;53.170;-2.240;2023-03-14T07:08:55;98798.88;;;10.72;nan
77240;BME280;66258;53.170;-2.240;2023-03-14T07:11:23;98806.41;;;10.96;nan
77240;BME280;66258;53.170;-2.240;2023-03-14T07:13:50;98820.41;;;11.13;nan
77240;BME280;66258;53.170;-2.240;2023-03-14T07:16:19;98831.66;;;11.17;nan
77240;BME280;66258;53.170;-2.240;2023-03-14T07:18:48;98842.91;;;11.20;nan
77240;BME280;66258;53.170;-2.240;2023-03-14T07:21:15;98845.00;;;11.18;nan
77240;BME280;66258;53.170;-2.240;2023-03-14T07:23:42;98850.84;;;11.48;nan
77240;BME280;66258;53.170;-2.240;2023-03-14T07:26:09;98860.47;;;11.84;nan
77240;BME280;66258;53.170;-2.240;2023-03-14T07:28:36;98867.75;;;12.03;nan
77240;BME280;66258;53.170;-2.240;2023-03-14T07:31:03;98872.06;;;12.30;nan
77240;BME280;66258;53.170;-2.240;2023-03-14T07:33:31;98891.84;;;12.57;nan
77240;BME280;66258;53.170;-2.240;2023-03-14T07:35:59;98899.50;;;12.73;nan
77240;BME280;66258;53.170;-2.240;2023-03-14T07:38:27;98909.41;;;13.06;nan
77240;BME280;66258;53.170;-2.240;2023-03-14T07:40:58;98913.81;;;13.45;nan
77240;BME280;66258;53.170;-2.240;2023-03-14T07:43:25;98931.47;;;13.61;nan
77240;BME280;66258;53.170;-2.240;2023-03-14T07:45:52;98944.09;;;13.80;nan
77240;BME280;66258;53.170;-2.240;2023-03-14T07:48:24;98948.91;;;14.09;nan
77240;BME280;66258;53.170;-2.240;2023-03-14T07:50:52;98958.56;;;14.30;nan
77240;BME280;66258;53.170;-2.240;2023-03-14T07:53:23;98965.88;;;14.30;nan
77240;BME280;66258;53.170;-2.240;2023-03-14T07:55:52;98973.31;;;14.16;nan
77240;BME280;66258;53.170;-2.240;2023-03-14T07:58:20;98977.63;;;14.30;nan
77240;BME280;66258;53.170;-2.240;2023-03-14T08:00:49;98987.72;;;14.73;nan
77240;BME280;66258;53.170;-2.240;2023-03-14T08:03:16;98997.84;;;15.02;nan
77240;BME280;66258;53.170;-2.240;2023-03-14T08:05:43;99013.69;;;15.12;nan
77240;BME280;66258;53.170;-2.240;2023-03-14T08:08:11;99013.75;;;15.05;nan
77240;BME280;66258;53.170;-2.240;2023-03-14T08:10:39;99026.03;;;15.33;nan
77240;BME280;66258;53.170;-2.240;2023-03-14T08:13:06;99024.31;;;15.50;nan
77240;BME280;66258;53.170;-2.240;2023-03-14T08:15:34;99024.56;;;15.67;nan
77240;BME280;66258;53.170;-2.240;2023-03-14T08:18:03;99039.94;;;15.61;nan
77240;BME280;66258;53.170;-2.240;2023-03-14T08:20:31;99044.94;;;15.28;nan
77240;BME280;66258;53.170;-2.240;2023-03-14T08:22:59;99044.50;;;15.31;nan
77240;BME280;66258;53.170;-2.240;2023-03-14T08:25:27;99045.78;;;15.28;nan
77240;BME280;66258;53.170;-2.240;2023-03-14T08:27:56;99055.34;;;15.37;nan
77240;BME280;66258;53.170;-2.240;2023-03-14T08:30:23;99064.84;;;15.46;nan
77240;BME280;66258;53.170;-2.240;2023-03-14T08:32:50;99069.03;;;15.49;nan
77240;BME280;66258;53.170;-2.240;2023-03-14T08:35:17;99067.31;;;15.85;nan
77240;BME280;66258;53.170;-2.240;2023-03-14T08:37:47;99065.50;;;16.38;nan
77240;BME280;66258;53.170;-2.240;2023-03-14T08:40:15;99086.59;;;16.73;nan
77240;BME280;66258;53.170;-2.240;2023-03-14T08:42:42;99089.97;;;16.45;nan
77240;BME280;66258;53.170;-2.240;2023-03-14T08:45:14;99098.53;;;16.48;nan
77240;BME280;66258;53.170;-2.240;2023-03-14T08:47:42;99116.63;;;16.61;nan
77240;BME280;66258;53.170;-2.240;2023-03-14T08:50:11;99111.53;;;16.65;nan
77240;BME280;66258;53.170;-2.240;2023-03-14T08:52:41;99123.69;;;16.80;nan
77240;BME280;66258;53.170;-2.240;2023-03-14T08:55:09;99129.03;;;17.10;nan
77240;BME280;66258;53.170;-2.240;2023-03-14T08:57:36;99127.03;;;16.94;nan
77240;BME280;66258;53.170;-2.240;2023-03-14T09:00:07;99132.63;;;17.11;nan
77240;BME280;66258;53.170;-2.240;2023-03-14T09:02:36;99133.09;;;17.20;nan
77240;BME280;66258;53.170;-2.240;2023-03-14T09:05:03;99137.00;;;17.12;nan
77240;BME280;66258;53.170;-2.240;2023-03-14T09:07:31;99141.06;;;17.21;nan
77240;BME280;66258;53.170;-2.240;2023-03-14T09:09:58;99140.31;;;16.79;nan
77240;BME280;66258;53.170;-2.240;2023-03-14T09:12:25;99157.03;;;16.71;nan
77240;BME280;66258;53.170;-2.240;2023-03-14T09:14:51;99156.53;;;17.04;nan
77240;BME280;66258;53.170;-2.240;2023-03-14T09:17:19;99164.72;;;17.15;nan
77240;BME280;66258;53.170;-2.240;2023-03-14T09:19:47;99168.25;;;16.93;nan
77240;BME280;66258;53.170;-2.240;2023-03-14T09:22:15;99165.25;;;16.71;nan
77240;BME280;66258;53.170;-2.240;2023-03-14T09:24:42;99172.28;;;16.19;nan
77240;BME280;66258;53.170;-2.240;2023-03-14T09:27:09;99172.03;;;16.38;nan
77240;BME280;66258;53.170;-2.240;2023-03-14T09:29:36;99181.78;;;15.79;nan
77240;BME280;66258;53.170;-2.240;2023-03-14T09:32:03;99191.34;;;15.89;nan
77240;BME280;66258;53.170;-2.240;2023-03-14T09:34:30;99193.91;;;16.02;nan
77240;BME280;66258;53.170;-2.240;2023-03-14T09:36:59;99192.22;;;16.01;nan
77240;BME280;66258;53.170;-2.240;2023-03-14T09:39:26;99203.38;;;16.18;nan
77240;BME280;66258;53.170;-2.240;2023-03-14T09:41:56;99215.25;;;16.41;nan
77240;BME280;66258;53.170;-2.240;2023-03-14T09:44:28;99214.44;;;16.04;nan
77240;BME280;66258;53.170;-2.240;2023-03-14T09:46:58;99216.41;;;15.61;nan
77240;BME280;66258;53.170;-2.240;2023-03-14T09:49:31;99225.31;;;15.50;nan
77240;BME280;66258;53.170;-2.240;2023-03-14T09:52:04;99226.75;;;15.77;nan
77240;BME280;66258;53.170;-2.240;2023-03-14T09:54:36;99235.69;;;15.84;nan
77240;BME280;66258;53.170;-2.240;2023-03-14T09:57:06;99242.66;;;15.12;nan
77240;BME280;66258;53.170;-2.240;2023-03-14T09:59:37;99249.47;;;15.21;nan
77240;BME280;66258;53.170;-2.240;2023-03-14T10:02:14;99263.78;;;15.41;nan
77240;BME280;66258;53.170;-2.240;2023-03-14T10:04:44;99267.91;;;15.26;nan
77240;BME280;66258;53.170;-2.240;2023-03-14T10:07:15;99277.31;;;15.30;nan
77240;BME280;66258;53.170;-2.240;2023-03-14T10:09:44;99280.19;;;16.03;nan
77240;BME280;66258;53.170;-2.240;2023-03-14T10:12:11;99277.78;;;14.95;nan
77240;BME280;66258;53.170;-2.240;2023-03-14T10:14:47;99261.66;;;14.04;nan
77240;BME280;66258;53.170;-2.240;2023-03-14T10:17:21;99257.72;;;14.38;nan
77240;BME280;66258;53.170;-2.240;2023-03-14T10:19:54;99280.38;;;15.15;nan
77240;BME280;66258;53.170;-2.240;2023-03-14T10:22:26;99286.44;;;15.42;nan
77240;BME280;66258;53.170;-2.240;2023-03-14T10:24:57;99288.50;;;14.90;nan
77240;BME280;66258;53.170;-2.240;2023-03-14T10:27:30;99279.06;;;14.55;nan
77240;BME280;66258;53.170;-2.240;2023-03-14T10:29:59;99282.41;;;14.95;nan
77240;BME280;66258;53.170;-2.240;2023-03-14T10:32:32;99293.03;;;15.03;nan
77240;BME280;66258;53.170;-2.240;2023-03-14T10:35:19;99288.50;;;14.52;nan
77240;BME280;66258;53.170;-2.240;2023-03-14T10:37:51;99296.06;;;14.37;nan
77240;BME280;66258;53.170;-2.240;2023-03-14T10:40:20;99283.50;;;14.49;nan
77240;BME280;66258;53.170;-2.240;2023-03-14T10:42:51;99290.19;;;14.91;nan
77240;BME280;66258;53.170;-2.240;2023-03-14T10:45:31;99287.03;;;15.94;nan
77240;BME280;66258;53.170;-2.240;2023-03-14T10:48:06;99298.94;;;17.14;nan
77240;BME280;66258;53.170;-2.240;2023-03-14T10:50:35;99293.25;;;16.37;nan
77240;BME280;66258;53.170;-2.240;2023-03-14T10:53:04;99287.31;;;16.22;nan
77240;BME280;66258;53.170;-2.240;2023-03-14T10:55:41;99279.44;;;15.53;nan
77240;BME280;66258;53.170;-2.240;2023-03-14T10:58:23;99290.50;;;15.82;nan
77240;BME280;66258;53.170;-2.240;2023-03-14T11:00:57;99293.22;;;16.01;nan
77240;BME280;66258;53.170;-2.240;2023-03-14T11:03:28;99298.09;;;15.56;nan
77240;BME280;66258;53.170;-2.240;2023-03-14T11:05:59;99311.59;;;16.48;nan
77240;BME280;66258;53.170;-2.240;2023-03-14T11:08:36;99307.13;;;15.56;nan
77240;BME280;66258;53.170;-2.240;2023-03-14T11:11:15;99311.50;;;16.00;nan
77240;BME280;66258;53.170;-2.240;2023-03-14T11:13:54;99323.06;;;16.21;nan
77240;BME280;66258;53.170;-2.240;2023-03-14T11:16:32;99319.22;;;16.95;nan
77240;BME280;66258;53.170;-2.240;2023-03-14T11:19:31;99326.81;;;16.01;nan
77240;BME280;66258;53.170;-2.240;2023-03-14T11:22:05;99317.00;;;14.36;nan
77240;BME280;66258;53.170;-2.240;2023-03-14T11:24:49;99321.75;;;14.67;nan
77240;BME280;66258;53.170;-2.240;2023-03-14T11:27:42;99327.91;;;14.94;nan
77240;BME280;66258;53.170;-2.240;2023-03-14T11:30:19;99325.00;;;15.45;nan
77240;BME280;66258;53.170;-2.240;2023-03-14T11:32:52;99340.16;;;15.91;nan
77240;BME280;66258;53.170;-2.240;2023-03-14T11:35:27;99339.00;;;15.24;nan
77240;BME280;66258;53.170;-2.240;2023-03-14T11:38:18;99336.94;;;16.37;nan
77240;BME280;66258;53.170;-2.240;2023-03-14T11:40:50;99345.81;;;15.71;nan
77240;BME280;66258;53.170;-2.240;2023-03-14T11:43:22;99359.13;;;16.04;nan
77240;BME280;66258;53.170;-2.240;2023-03-14T11:45:55;99358.75;;;14.17;nan
77240;BME280;66258;53.170;-2.240;2023-03-14T11:48:31;99360.47;;;13.52;nan
77240;BME280;66258;53.170;-2.240;2023-03-14T11:51:08;99374.59;;;13.01;nan
77240;BME280;66258;53.170;-2.240;2023-03-14T11:53:44;99377.47;;;12.80;nan
77240;BME280;66258;53.170;-2.240;2023-03-14T11:56:23;99386.75;;;13.12;nan
77240;BME280;66258;53.170;-2.240;2023-03-14T11:59:02;99395.81;;;13.26;nan
77240;BME280;66258;53.170;-2.240;2023-03-14T12:01:45;99387.84;;;13.18;nan
77240;BME280;66258;53.170;-2.240;2023-03-14T12:04:25;99385.34;;;12.62;nan
77240;BME280;66258;53.170;-2.240;2023-03-14T12:06:56;99395.66;;;12.86;nan
77240;BME280;66258;53.170;-2.240;2023-03-14T12:09:29;99402.53;;;12.89;nan
77240;BME280;66258;53.170;-2.240;2023-03-14T12:12:00;99402.28;;;13.31;nan
77240;BME280;66258;53.170;-2.240;2023-03-14T12:14:32;99406.94;;;13.64;nan
77240;BME280;66258;53.170;-2.240;2023-03-14T12:17:05;99406.47;;;14.20;nan
77240;BME280;66258;53.170;-2.240;2023-03-14T12:19:35;99417.66;;;14.83;nan
77240;BME280;66258;53.170;-2.240;2023-03-14T12:24:54;99421.31;;;17.18;nan
77240;BME280;66258;53.170;-2.240;2023-03-14T12:27:43;99422.97;;;16.28;nan
77240;BME280;66258;53.170;-2.240;2023-03-14T12:30:18;99419.47;;;15.71;nan
77240;BME280;66258;53.170;-2.240;2023-03-14T12:33:11;99416.47;;;16.04;nan
77240;BME280;66258;53.170;-2.240;2023-03-14T12:35:40;99428.44;;;16.46;nan
77240;BME280;66258;53.170;-2.240;2023-03-14T12:38:10;99420.59;;;17.53;nan
77240;BME280;66258;53.170;-2.240;2023-03-14T12:40:45;99423.50;;;17.58;nan
77240;BME280;66258;53.170;-2.240;2023-03-14T12:43:26;99436.38;;;17.09;nan
77240;BME280;66258;53.170;-2.240;2023-03-14T12:46:19;99422.84;;;15.35;nan
77240;BME280;66258;53.170;-2.240;2023-03-14T12:48:49;99411.97;;;13.67;nan
77240;BME280;66258;53.170;-2.240;2023-03-14T12:51:19;99415.91;;;14.24;nan
77240;BME280;66258;53.170;-2.240;2023-03-14T12:54:07;99413.53;;;14.67;nan
77240;BME280;66258;53.170;-2.240;2023-03-14T12:56:50;99412.75;;;14.20;nan
77240;BME280;66258;53.170;-2.240;2023-03-14T12:59:46;99416.81;;;14.82;nan
77240;BME280;66258;53.170;-2.240;2023-03-14T13:02:24;99415.25;;;14.41;nan
77240;BME280;66258;53.170;-2.240;2023-03-14T13:04:59;99424.78;;;14.77;nan
77240;BME280;66258;53.170;-2.240;2023-03-14T13:07:33;99410.22;;;14.52;nan
77240;BME280;66258;53.170;-2.240;2023-03-14T13:10:16;99406.22;;;15.05;nan
77240;BME280;66258;53.170;-2.240;2023-03-14T13:12:48;99407.25;;;15.42;nan
77240;BME280;66258;53.170;-2.240;2023-03-14T13:15:24;99423.16;;;15.84;nan
77240;BME280;66258;53.170;-2.240;2023-03-14T13:17:56;99412.22;;;15.21;nan
77240;BME280;66258;53.170;-2.240;2023-03-14T13:20:34;99407.31;;;14.20;nan
77240;BME280;66258;53.170;-2.240;2023-03-14T13:23:02;99405.25;;;14.93;nan
77240;BME280;66258;53.170;-2.240;2023-03-14T13:25:32;99402.25;;;14.37;nan
77240;BME280;66258;53.170;-2.240;2023-03-14T13:28:01;99418.84;;;15.38;nan
77240;BME280;66258;53.170;-2.240;2023-03-14T13:30:39;99421.47;;;14.75;nan
77240;BME280;66258;53.170;-2.240;2023-03-14T13:33:11;99430.53;;;15.07;nan